createdAt,value
2016-05-30T14:20:59.945Z,65248
2016-05-30T14:21:52.790Z,68192
2016-05-30T14:22:52.731Z,46624
2016-05-30T14:23:51.953Z,36736
2016-05-30T14:24:51.814Z,65376
2016-05-30T14:25:51.942Z,66816
2016-05-30T14:26:51.789Z,65088
2016-05-30T14:27:51.931Z,63360
2016-05-30T14:28:51.919Z,60800
2016-05-30T14:29:51.922Z,58656
2016-05-30T14:30:51.925Z,55456
2016-05-30T14:31:51.756Z,54496
2016-05-30T14:32:51.914Z,57760
2016-05-30T14:33:51.761Z,56000
2016-05-30T14:34:51.919Z,55968
2016-05-30T14:35:51.907Z,57024
2016-05-30T14:36:52.628Z,58560
2016-05-30T14:37:52.209Z,62080
2016-05-30T14:38:51.916Z,63520
2016-05-30T14:39:51.746Z,61632
2016-05-30T14:40:51.748Z,57056
2016-05-30T14:41:51.891Z,57696
2016-05-30T14:42:51.894Z,57344
2016-05-30T14:43:51.897Z,54528
2016-05-30T14:44:51.899Z,53888
2016-05-30T14:45:51.902Z,53152
2016-05-30T14:46:51.904Z,50528
2016-05-30T14:47:51.736Z,47808
2016-05-30T14:48:51.895Z,47808
2016-05-30T14:49:51.756Z,50048
2016-05-30T14:50:51.915Z,49696
2016-05-30T14:51:51.762Z,49600
2016-05-30T14:52:52.671Z,50464
2016-05-30T14:53:51.752Z,48512
2016-05-30T14:54:51.989Z,47904
2016-05-30T14:55:51.898Z,41184
2016-05-30T14:56:51.900Z,50848
2016-05-30T14:57:51.903Z,52800
2016-05-30T14:58:51.765Z,53760
2016-05-30T14:59:51.909Z,54752
2016-05-30T15:00:51.911Z,54304
2016-05-30T15:01:51.930Z,52672
2016-05-30T15:02:51.776Z,52416
2016-05-30T15:03:51.919Z,53248
2016-05-30T15:04:51.906Z,53984
2016-05-30T15:05:51.924Z,50400
2016-05-30T15:06:52.161Z,46400
2016-05-30T15:07:54.555Z,40128
2016-05-30T15:08:51.949Z,33792
2016-05-30T15:09:51.874Z,25792
2016-05-30T15:10:53.860Z,18752
2016-05-30T15:11:51.800Z,20160
2016-05-30T15:12:51.943Z,21184
2016-05-30T15:13:51.634Z,21504
2016-05-30T15:14:51.996Z,21536
2016-05-30T15:15:51.655Z,20992
2016-05-30T15:16:51.813Z,19424
2016-05-30T15:17:51.785Z,16416
2016-05-30T15:18:51.959Z,14036
2016-05-30T15:19:51.665Z,11264
2016-05-30T15:20:51.794Z,9672
2016-05-30T15:21:51.796Z,7668
2016-05-30T15:22:58.392Z,6788
2016-05-30T15:23:51.848Z,6524
2016-05-30T15:24:53.288Z,6428
2016-05-30T15:25:55.510Z,6356
2016-05-30T15:26:51.950Z,6260
2016-05-30T15:27:58.359Z,6204
2016-05-30T15:28:51.846Z,5632
2016-05-30T15:29:51.802Z,4956
2016-05-30T15:30:51.945Z,4768
2016-05-30T15:31:51.807Z,4548
2016-05-30T15:32:51.826Z,4368
2016-05-30T15:33:51.953Z,4284
2016-05-30T15:34:51.972Z,4208
2016-05-30T15:35:51.818Z,4192
2016-05-30T15:36:51.961Z,4368
2016-05-30T15:37:53.995Z,4684
2016-05-30T15:38:51.827Z,4880
2016-05-30T15:39:54.704Z,4980
2016-05-30T15:40:52.785Z,5152
2016-05-30T15:41:54.990Z,5488
2016-05-30T15:42:51.946Z,5928
2016-05-30T15:43:51.933Z,6740
2016-05-30T15:44:51.764Z,9048
2016-05-30T15:45:51.939Z,11604
2016-05-30T15:46:51.629Z,7784
2016-05-30T15:47:51.787Z,6476
2016-05-30T15:48:51.916Z,5796
2016-05-30T15:49:51.918Z,5404
2016-05-30T15:50:51.765Z,5196
2016-05-30T15:51:51.907Z,5008
2016-05-30T15:52:54.098Z,5020
2016-05-30T15:53:53.070Z,6308
2016-05-30T15:54:52.229Z,8396
2016-05-30T15:55:51.918Z,8580
2016-05-30T15:56:51.906Z,8652
2016-05-30T15:57:51.893Z,8668
2016-05-30T15:58:51.895Z,8648
2016-05-30T15:59:51.884Z,8564
2016-05-30T16:00:51.886Z,8636
2016-05-30T16:01:51.747Z,8644
2016-05-30T16:02:51.750Z,8564
2016-05-30T16:03:51.752Z,8436
2016-05-30T16:04:51.880Z,8300
2016-05-30T16:05:51.868Z,8136
2016-05-30T16:06:51.870Z,7948
2016-05-30T16:07:55.200Z,7804
2016-05-30T16:08:54.453Z,7584
2016-05-30T16:09:51.769Z,7436
2016-05-30T16:10:53.381Z,7384
2016-05-30T16:11:56.133Z,7472
2016-05-30T16:12:51.824Z,7592
2016-05-30T16:13:51.560Z,7776
2016-05-30T16:14:51.830Z,8048
2016-05-30T16:15:51.832Z,7932
2016-05-30T16:16:51.804Z,7748
2016-05-30T16:17:51.806Z,7720
2016-05-30T16:18:51.824Z,7516
2016-05-30T16:19:51.655Z,7752
2016-05-30T16:20:51.643Z,7500
2016-05-30T16:21:51.801Z,7384
2016-05-30T16:22:51.491Z,7164
2016-05-30T16:23:53.431Z,7072
2016-05-30T16:24:53.763Z,6944
2016-05-30T16:25:52.921Z,6860
2016-05-30T16:26:51.784Z,6520
2016-05-30T16:27:51.787Z,6112
2016-05-30T16:28:51.617Z,6052
2016-05-30T16:29:51.603Z,6024
2016-05-30T16:30:51.747Z,5816
2016-05-30T16:31:51.765Z,5784
2016-05-30T16:32:51.753Z,5728
2016-05-30T16:33:51.739Z,6036
2016-05-30T16:34:51.759Z,6200
2016-05-30T16:35:51.589Z,6304
2016-05-30T16:36:51.732Z,6432
2016-05-30T16:37:51.453Z,6572
2016-05-30T16:38:55.441Z,6852
2016-05-30T16:39:55.600Z,12672
2016-05-30T16:40:51.868Z,20160
2016-05-30T16:41:51.714Z,26944
2016-05-30T16:42:51.576Z,33152
2016-05-30T16:43:51.736Z,32128
2016-05-30T16:44:51.707Z,34304
2016-05-30T16:45:51.569Z,30432
2016-05-30T16:46:51.571Z,29312
2016-05-30T16:47:51.605Z,25888
2016-05-30T16:48:51.561Z,22464
2016-05-30T16:49:51.705Z,22048
2016-05-30T16:50:51.691Z,24864
2016-05-30T16:51:51.694Z,25024
2016-05-30T16:52:52.401Z,22272
2016-05-30T16:53:54.887Z,20352
2016-05-30T16:54:57.077Z,19552
2016-05-30T16:55:55.549Z,19520
2016-05-30T16:56:54.115Z,19840
2016-05-30T16:57:51.695Z,5500
2016-05-30T16:58:51.698Z,4600
2016-05-30T16:59:51.528Z,4292
2016-05-30T17:00:51.531Z,4280
2016-05-30T17:01:51.533Z,4316
2016-05-30T17:02:51.678Z,4276
2016-05-30T17:03:51.681Z,4076
2016-05-30T17:04:51.667Z,3864
2016-05-30T17:05:51.670Z,6668
2016-05-30T17:06:51.672Z,4688
2016-05-30T17:07:51.566Z,3568
2016-05-30T17:08:53.052Z,3524
2016-05-30T17:09:56.680Z,3492
2016-05-30T17:10:52.120Z,3428
2016-05-30T17:11:54.748Z,3460
2016-05-30T17:12:51.516Z,3492
2016-05-30T17:13:51.519Z,3516
2016-05-30T17:14:51.538Z,3632
2016-05-30T17:15:51.494Z,3692
2016-05-30T17:16:51.497Z,3700
2016-05-30T17:17:51.358Z,3692
2016-05-30T17:18:51.330Z,3768
2016-05-30T17:19:51.473Z,3768
2016-05-30T17:20:51.632Z,3632
2016-05-30T17:21:51.479Z,3368
2016-05-30T17:22:52.184Z,3048
2016-05-30T17:23:53.390Z,2700
2016-05-30T17:24:53.112Z,2392
2016-05-30T17:25:51.598Z,2208
2016-05-30T17:26:51.601Z,2152
2016-05-30T17:27:51.588Z,2168
2016-05-30T17:28:51.418Z,2176
2016-05-30T17:29:51.406Z,2132
2016-05-30T17:30:51.549Z,2064
2016-05-30T17:31:51.552Z,1984
2016-05-30T17:32:51.554Z,1876
2016-05-30T17:33:51.557Z,1728
2016-05-30T17:34:51.388Z,1576
2016-05-30T17:35:51.375Z,1476
2016-05-30T17:36:51.534Z,1452
2016-05-30T17:37:51.381Z,1532
2016-05-30T17:38:51.368Z,1696
2016-05-30T17:39:51.511Z,1732
2016-05-30T17:40:51.530Z,1640
2016-05-30T17:41:51.516Z,1520
2016-05-30T17:42:51.488Z,1412
2016-05-30T17:43:51.380Z,1320
2016-05-30T17:44:51.321Z,1240
2016-05-30T17:45:51.464Z,1184
2016-05-30T17:46:51.311Z,1144
2016-05-30T17:47:51.470Z,1096
2016-05-30T17:48:51.457Z,1044
2016-05-30T17:49:51.460Z,1020
2016-05-30T17:50:51.447Z,1012
2016-05-30T17:51:51.435Z,996
2016-05-30T17:52:51.546Z,952
2016-05-30T17:53:52.049Z,892
2016-05-30T17:54:51.410Z,836
2016-05-30T17:55:51.413Z,792
2016-05-30T17:56:51.259Z,756
2016-05-30T17:57:51.404Z,720
2016-05-30T17:58:51.422Z,688
2016-05-30T17:59:51.393Z,656
2016-05-30T18:00:51.379Z,624
2016-05-30T18:01:53.805Z,592
2016-05-30T18:02:51.369Z,576
2016-05-30T18:03:51.216Z,564
2016-05-30T18:04:51.359Z,560
2016-05-30T18:05:51.331Z,556
2016-05-30T18:06:53.053Z,556
2016-05-30T18:07:51.336Z,560
2016-05-30T18:08:51.323Z,572
2016-05-30T18:09:51.311Z,592
2016-05-30T18:10:51.328Z,620
2016-05-30T18:11:51.300Z,652
2016-05-30T18:12:51.287Z,684
2016-05-30T18:13:51.290Z,716
2016-05-30T18:14:51.277Z,724
2016-05-30T18:15:51.139Z,732
2016-05-30T18:16:51.266Z,728
2016-05-30T18:17:51.114Z,712
2016-05-30T18:18:51.256Z,700
2016-05-30T18:19:51.260Z,688
2016-05-30T18:20:51.230Z,668
2016-05-30T18:21:51.249Z,648
2016-05-30T18:22:51.518Z,652
2016-05-30T18:23:51.223Z,668
2016-05-30T18:24:51.069Z,692
2016-05-30T18:25:51.213Z,704
2016-05-30T18:26:51.200Z,696
2016-05-30T18:27:51.046Z,664
2016-05-30T18:28:51.174Z,624
2016-05-30T18:29:51.177Z,600
2016-05-30T18:30:51.023Z,592
2016-05-30T18:31:51.151Z,600
2016-05-30T18:32:50.998Z,612
2016-05-30T18:33:51.156Z,620
2016-05-30T18:34:50.987Z,612
2016-05-30T18:35:51.131Z,620
2016-05-30T18:36:50.977Z,628
2016-05-30T18:37:51.167Z,624
2016-05-30T18:38:51.106Z,620
2016-05-30T18:39:51.110Z,620
2016-05-30T18:40:51.097Z,624
2016-05-30T18:41:51.083Z,620
2016-05-30T18:42:50.931Z,612
2016-05-30T18:43:50.917Z,604
2016-05-30T18:44:51.061Z,588
2016-05-30T18:45:51.048Z,568
2016-05-30T18:46:51.067Z,544
2016-05-30T18:47:51.038Z,524
2016-05-30T18:48:50.884Z,508
2016-05-30T18:49:50.872Z,496
2016-05-30T18:50:51.014Z,488
2016-05-30T18:51:50.861Z,484
2016-05-30T18:52:51.520Z,484
2016-05-30T18:53:51.272Z,492
2016-05-30T18:54:50.994Z,492
2016-05-30T18:55:50.981Z,488
2016-05-30T18:56:50.984Z,476
2016-05-30T18:57:50.970Z,472
2016-05-30T18:58:50.801Z,460
2016-05-30T18:59:50.961Z,444
2016-05-30T19:00:50.963Z,428
2016-05-30T19:01:50.935Z,416
2016-05-30T19:02:50.921Z,404
2016-05-30T19:03:50.924Z,396
2016-05-30T19:04:50.911Z,380
2016-05-30T19:05:50.898Z,364
2016-05-30T19:06:50.886Z,340
2016-05-30T19:07:50.732Z,316
2016-05-30T19:08:50.922Z,284
2016-05-30T19:09:50.722Z,256
2016-05-30T19:10:50.709Z,228
2016-05-30T19:11:50.711Z,204
2016-05-30T19:12:50.699Z,188
2016-05-30T19:13:50.670Z,184
2016-05-30T19:14:50.845Z,184
2016-05-30T19:15:50.817Z,180
2016-05-30T19:16:50.803Z,184
2016-05-30T19:17:50.805Z,176
2016-05-30T19:18:50.808Z,164
2016-05-30T19:19:50.796Z,156
2016-05-30T19:20:50.767Z,148
2016-05-30T19:21:50.770Z,132
2016-05-30T19:22:51.444Z,128
2016-05-30T19:23:50.760Z,120
2016-05-30T19:24:50.731Z,116
2016-05-30T19:25:50.766Z,112
2016-05-30T19:26:50.580Z,108
2016-05-30T19:27:50.738Z,104
2016-05-30T19:28:50.711Z,100
2016-05-30T19:29:50.557Z,96
2016-05-30T19:30:50.543Z,96
2016-05-30T19:31:50.532Z,96
2016-05-30T19:32:50.674Z,92
2016-05-30T19:33:50.677Z,88
2016-05-30T19:34:50.664Z,76
2016-05-30T19:35:51.667Z,76
2016-05-30T19:36:50.654Z,76
2016-05-30T19:37:51.312Z,76
2016-05-30T19:38:50.332Z,72
2016-05-30T19:39:50.631Z,68
2016-05-30T19:40:50.603Z,64
2016-05-30T19:41:50.589Z,60
2016-05-30T19:42:50.592Z,56
2016-05-30T19:43:50.595Z,52
2016-05-30T19:44:50.409Z,48
2016-05-30T19:45:50.569Z,44
2016-05-30T19:46:50.555Z,40
2016-05-30T19:47:50.559Z,36
2016-05-30T19:48:50.545Z,32
2016-05-30T19:49:50.548Z,28
2016-05-30T19:50:50.536Z,28
2016-05-30T19:51:50.350Z,24
2016-05-30T19:52:51.369Z,24
2016-05-30T19:53:50.513Z,20
2016-05-30T19:54:50.327Z,20
2016-05-30T19:55:50.502Z,20
2016-05-30T19:56:50.316Z,16
2016-05-30T19:57:50.461Z,12
2016-05-30T19:58:50.307Z,12
2016-05-30T19:59:50.293Z,8
2016-05-30T20:00:50.452Z,12
2016-05-30T20:01:53.690Z,8
2016-05-30T20:02:50.271Z,8
2016-05-30T20:03:50.398Z,8
2016-05-30T20:04:50.401Z,4
2016-05-30T20:05:50.388Z,8
2016-05-30T20:06:50.390Z,4
2016-05-30T20:07:51.143Z,4
2016-05-30T20:08:50.209Z,0
2016-05-30T20:09:50.368Z,4
2016-05-30T20:10:50.339Z,4
2016-05-30T20:11:50.357Z,4
2016-05-30T20:12:50.329Z,4
2016-05-30T20:13:50.160Z,0
2016-05-30T20:14:50.319Z,0
2016-05-30T20:15:50.305Z,0
2016-05-30T20:16:50.308Z,0
2016-05-30T20:17:50.296Z,0
2016-05-30T20:18:50.314Z,0
2016-05-30T20:19:50.347Z,0
2016-05-30T20:20:50.319Z,0
2016-05-30T20:21:50.103Z,0
2016-05-30T20:22:50.668Z,0
2016-05-30T20:23:50.094Z,0
2016-05-30T20:24:50.080Z,0
2016-05-30T20:25:50.207Z,0
2016-05-30T20:26:50.054Z,0
2016-05-30T20:27:50.041Z,0
2016-05-30T20:28:50.185Z,0
2016-05-30T20:29:50.015Z,0
2016-05-30T20:30:50.175Z,0
2016-05-30T20:31:50.005Z,0
2016-05-30T20:32:50.149Z,0
2016-05-30T20:33:50.135Z,0
2016-05-30T20:34:50.123Z,0
2016-05-30T20:35:50.125Z,0
2016-05-30T20:36:50.096Z,0
2016-05-30T20:37:50.209Z,0
2016-05-30T20:38:50.540Z,0
2016-05-30T20:39:49.932Z,0
2016-05-30T20:40:49.920Z,0
2016-05-30T20:41:49.907Z,0
2016-05-30T20:42:50.051Z,0
2016-05-30T20:43:50.037Z,0
2016-05-30T20:44:50.025Z,0
2016-05-30T20:45:50.027Z,0
2016-05-30T20:46:50.014Z,0
2016-05-30T20:47:50.001Z,0
2016-05-30T20:48:50.473Z,0
2016-05-30T20:49:49.851Z,0
2016-05-30T20:50:49.980Z,0
2016-05-30T20:51:50.003Z,0
2016-05-30T20:52:49.856Z,0
2016-05-30T20:53:50.021Z,0
2016-05-30T20:54:50.029Z,0
2016-05-30T20:55:50.037Z,0
2016-05-30T20:56:50.033Z,0
2016-05-30T20:57:49.887Z,0
2016-05-30T20:58:50.023Z,0
2016-05-30T20:59:50.017Z,0
2016-05-30T21:00:50.043Z,0
2016-05-30T21:01:50.017Z,0
2016-05-30T21:02:50.023Z,0
2016-05-30T21:03:50.013Z,0
2016-05-30T21:04:50.002Z,0
2016-05-30T21:05:49.852Z,0
2016-05-30T21:06:49.980Z,0
2016-05-30T21:07:49.860Z,0
2016-05-30T21:08:50.019Z,0
2016-05-30T21:09:49.961Z,0
2016-05-30T21:10:49.949Z,0
2016-05-30T21:11:49.796Z,0
2016-05-30T21:12:49.768Z,0
2016-05-30T21:13:49.911Z,0
2016-05-30T21:14:49.930Z,0
2016-05-30T21:15:49.902Z,0
2016-05-30T21:16:49.748Z,0
2016-05-30T21:17:49.908Z,0
2016-05-30T21:18:49.894Z,0
2016-05-30T21:19:49.725Z,0
2016-05-30T21:20:49.869Z,0
2016-05-30T21:21:49.856Z,0
2016-05-30T21:22:50.342Z,0
2016-05-30T21:23:49.689Z,0
2016-05-30T21:24:49.847Z,0
2016-05-30T21:25:49.835Z,0
2016-05-30T21:26:49.869Z,0
2016-05-30T21:27:49.637Z,0
2016-05-30T21:28:49.640Z,0
2016-05-30T21:29:49.783Z,0
2016-05-30T21:30:49.613Z,0
2016-05-30T21:31:49.789Z,0
2016-05-30T21:32:49.698Z,0
2016-05-30T21:33:49.731Z,0
2016-05-30T21:34:49.735Z,0
2016-05-30T21:35:49.565Z,0
2016-05-30T21:36:49.818Z,0
2016-05-30T21:37:50.054Z,0
2016-05-30T21:38:49.542Z,0
2016-05-30T21:39:49.717Z,0
2016-05-30T21:40:49.376Z,0
2016-05-30T21:41:49.660Z,0
2016-05-30T21:42:49.646Z,0
2016-05-30T21:43:49.633Z,0
2016-05-30T21:44:49.667Z,0
2016-05-30T21:45:49.623Z,0
2016-05-30T21:46:49.626Z,0
2016-05-30T21:47:49.441Z,0
2016-05-30T21:48:49.584Z,0
2016-05-30T21:49:49.415Z,0
2016-05-30T21:50:49.574Z,0
2016-05-30T21:51:49.561Z,0
2016-05-30T21:52:50.173Z,0
2016-05-30T21:53:49.536Z,0
2016-05-30T21:54:49.538Z,0
2016-05-30T21:55:49.525Z,0
2016-05-30T21:56:49.512Z,0
2016-05-30T21:57:49.515Z,0
2016-05-30T21:58:49.486Z,0
2016-05-30T21:59:49.489Z,0
2016-05-30T22:00:49.179Z,0
2016-05-30T22:01:49.463Z,0
2016-05-30T22:02:49.449Z,0
2016-05-30T22:03:49.437Z,0
2016-05-30T22:04:49.440Z,0
2016-05-30T22:05:49.411Z,0
2016-05-30T22:06:49.414Z,0
2016-05-30T22:07:50.370Z,0
2016-05-30T22:08:49.388Z,0
2016-05-30T22:09:49.391Z,0
2016-05-30T22:10:49.221Z,0
2016-05-30T22:11:49.365Z,0
2016-05-30T22:12:49.352Z,0
2016-05-30T22:13:49.354Z,0
2016-05-30T22:14:49.169Z,0
2016-05-30T22:15:49.329Z,0
2016-05-30T22:16:49.331Z,0
2016-05-30T22:17:49.319Z,0
2016-05-30T22:18:49.305Z,0
2016-05-30T22:19:49.292Z,0
2016-05-30T22:20:49.311Z,0
2016-05-30T22:21:49.125Z,0
2016-05-30T22:22:49.114Z,0
2016-05-30T22:23:49.241Z,0
2016-05-30T22:24:49.071Z,0
2016-05-30T22:25:49.246Z,0
2016-05-30T22:26:49.219Z,0
2016-05-30T22:27:49.189Z,0
2016-05-30T22:28:49.207Z,0
2016-05-30T22:29:49.179Z,0
2016-05-30T22:30:49.197Z,0
2016-05-30T22:31:49.152Z,0
2016-05-30T22:32:49.171Z,0
2016-05-30T22:33:49.143Z,0
2016-05-30T22:34:49.129Z,0
2016-05-30T22:35:49.132Z,0
2016-05-30T22:36:49.120Z,0
2016-05-30T22:37:50.482Z,0
2016-05-30T22:38:49.110Z,0
2016-05-30T22:39:48.940Z,0
2016-05-30T22:40:49.068Z,0
2016-05-30T22:41:49.055Z,0
2016-05-30T22:42:48.886Z,0
2016-05-30T22:43:49.060Z,0
2016-05-30T22:44:49.016Z,0
2016-05-30T22:45:49.020Z,0
2016-05-30T22:46:49.209Z,0
2016-05-30T22:47:48.836Z,0
2016-05-30T22:48:48.995Z,0
2016-05-30T22:49:48.983Z,0
2016-05-30T22:50:48.954Z,0
2016-05-30T22:51:48.956Z,0
2016-05-30T22:52:49.163Z,0
2016-05-30T22:53:48.775Z,0
2016-05-30T22:54:48.919Z,0
2016-05-30T22:55:48.906Z,0
2016-05-30T22:56:48.908Z,0
2016-05-30T22:57:48.895Z,0
2016-05-30T22:58:48.882Z,0
2016-05-30T22:59:48.869Z,0
2016-05-30T23:00:48.872Z,0
2016-05-30T23:01:48.688Z,0
2016-05-30T23:02:48.846Z,0
2016-05-30T23:03:48.817Z,0
2016-05-30T23:04:48.663Z,0
2016-05-30T23:05:48.807Z,0
2016-05-30T23:06:48.810Z,0
2016-05-30T23:07:48.969Z,0
2016-05-30T23:08:48.815Z,0
2016-05-30T23:09:48.771Z,0
2016-05-30T23:10:48.758Z,0
2016-05-30T23:11:48.745Z,0
2016-05-30T23:12:48.732Z,0
2016-05-30T23:13:48.735Z,0
2016-05-30T23:14:48.722Z,0
2016-05-30T23:15:48.709Z,0
2016-05-30T23:16:48.711Z,0
2016-05-30T23:17:48.699Z,0
2016-05-30T23:18:48.670Z,0
2016-05-30T23:19:48.532Z,0
2016-05-30T23:20:48.645Z,0
2016-05-30T23:21:48.647Z,0
2016-05-30T23:22:48.555Z,0
2016-05-30T23:23:48.621Z,0
2016-05-30T23:24:48.609Z,0
2016-05-30T23:25:48.611Z,0
2016-05-30T23:26:48.597Z,0
2016-05-30T23:27:48.586Z,0
2016-05-30T23:28:48.572Z,0
2016-05-30T23:29:48.403Z,0
2016-05-30T23:30:48.561Z,0
2016-05-30T23:31:48.393Z,0
2016-05-30T23:32:48.552Z,0
2016-05-30T23:33:48.367Z,0
2016-05-30T23:34:48.510Z,0
2016-05-30T23:35:48.496Z,0
2016-05-30T23:36:48.327Z,0
2016-05-30T23:37:48.331Z,0
2016-05-30T23:38:48.318Z,0
2016-05-30T23:39:48.445Z,0
2016-05-30T23:40:48.276Z,0
2016-05-30T23:41:48.279Z,0
2016-05-30T23:42:48.265Z,0
2016-05-30T23:43:48.410Z,0
2016-05-30T23:44:48.396Z,0
2016-05-30T23:45:48.398Z,0
2016-05-30T23:46:48.262Z,0
2016-05-30T23:47:48.389Z,0
2016-05-30T23:48:48.360Z,0
2016-05-30T23:49:48.192Z,0
2016-05-30T23:50:48.334Z,0
2016-05-30T23:51:48.322Z,0
2016-05-30T23:52:48.574Z,0
2016-05-30T23:53:48.295Z,0
2016-05-30T23:54:48.298Z,0
2016-05-30T23:55:48.285Z,0
2016-05-30T23:56:48.131Z,0
2016-05-30T23:57:48.259Z,0
2016-05-30T23:58:48.246Z,0
2016-05-30T23:59:48.265Z,0
